createdAt,value
2022-12-11T09:20:45.141Z,16.40
2022-12-11T09:35:58.513Z,18.30
2022-12-11T09:51:11.268Z,19.40
2022-12-11T10:06:22.039Z,19.90
2022-12-11T10:21:27.998Z,20.10
2022-12-11T10:36:35.655Z,20.30
2022-12-11T10:51:40.649Z,20.50
2022-12-11T11:06:45.250Z,20.50
2022-12-11T11:21:53.145Z,20.50
2022-12-11T11:37:05.618Z,20.40
2022-12-11T11:52:16.631Z,20.50
2022-12-11T12:07:31.373Z,20.70
2022-12-11T12:22:55.093Z,20.60
2022-12-11T12:38:06.827Z,20.70
2022-12-11T12:53:18.623Z,20.70
2022-12-11T13:08:27.903Z,20.70
2022-12-11T13:23:34.913Z,20.80
2022-12-11T13:38:40.939Z,21.00
2022-12-11T13:53:45.672Z,21.10
2022-12-11T14:08:54.245Z,21.10
2022-12-11T14:24:00.669Z,21.10
2022-12-11T14:39:09.482Z,21.10
2022-12-11T14:54:28.694Z,21.10
2022-12-11T15:09:40.717Z,21.10
2022-12-11T15:24:47.530Z,21.20
2022-12-11T15:39:52.777Z,21.20
2022-12-11T15:54:57.298Z,21.10
2022-12-11T16:10:01.914Z,21.00
2022-12-11T16:25:07.598Z,20.90
2022-12-11T16:40:13.810Z,20.70
2022-12-11T16:55:22.291Z,20.60
2022-12-11T17:10:26.835Z,20.50
2022-12-11T17:25:31.352Z,20.40
2022-12-11T17:40:35.997Z,20.30
2022-12-11T17:55:42.860Z,20.20
2022-12-11T18:10:47.575Z,20.10
2022-12-11T18:25:52.148Z,20.00
2022-12-11T18:40:56.672Z,20.00
2022-12-11T18:56:01.277Z,19.90
2022-12-11T19:11:07.307Z,19.90
